Time;durP1;ratioP1;P1;durP2;ratioP2;P2;SDS_P1;SDS_P2;PMS_P1;PMS_P2;Temp;Humidity;BMP_temperature;BMP_pressure;BME280_temperature;BME280_humidity;BME280_pressure;Samples;Min_cycle;Max_cycle;Signal;HPM_P1;HPM_P2
2021/09/03 00:01:29;;;;;;;7.87;6.23;;;;;;;9.97;100.00;101581.97;5027921;28;20302;-73
2021/09/03 00:03:55;;;;;;;7.83;6.17;;;;;;;9.98;100.00;101583.66;5027977;28;20663;-73
2021/09/03 00:06:21;;;;;;;9.03;6.50;;;;;;;9.90;100.00;101575.03;5026423;28;20207;-73
2021/09/03 00:08:48;;;;;;;8.30;6.10;;;;;;;9.88;100.00;101578.56;5025116;28;20210;-73
2021/09/03 00:11:16;;;;;;;8.77;6.40;;;;;;;9.98;100.00;101568.03;5028024;28;20200;-73
2021/09/03 00:13:42;;;;;;;8.43;6.77;;;;;;;9.92;100.00;101575.03;5028404;28;20625;-73
2021/09/03 00:16:09;;;;;;;10.27;7.20;;;;;;;9.81;100.00;101575.97;5026377;28;20230;-73
2021/09/03 00:18:35;;;;;;;9.40;7.30;;;;;;;9.86;100.00;101573.34;5025344;28;20198;-73
2021/09/03 00:21:01;;;;;;;9.30;6.50;;;;;;;9.85;100.00;101569.03;5028718;28;20712;-73
2021/09/03 00:23:28;;;;;;;9.83;7.10;;;;;;;9.79;100.00;101561.25;5029879;28;20533;-73
2021/09/03 00:25:54;;;;;;;9.23;6.53;;;;;;;9.84;100.00;101560.34;5028372;28;20205;-73
2021/09/03 00:28:22;;;;;;;8.60;6.93;;;;;;;9.79;100.00;101556.91;5027393;28;20221;-73
2021/09/03 00:30:49;;;;;;;9.83;8.17;;;;;;;9.75;100.00;101551.75;5029310;28;20693;-73
2021/09/03 00:33:15;;;;;;;8.20;6.40;;;;;;;9.68;100.00;101553.53;5028476;28;20196;-73
2021/09/03 00:35:41;;;;;;;10.40;6.50;;;;;;;9.70;100.00;101556.13;5027616;28;20226;-73
2021/09/03 00:38:08;;;;;;;12.30;7.37;;;;;;;9.68;100.00;101553.53;5023803;28;20278;-73
2021/09/03 00:40:34;;;;;;;11.07;6.90;;;;;;;9.59;100.00;101551.88;5029691;28;20218;-73
2021/09/03 00:43:01;;;;;;;9.60;7.17;;;;;;;9.66;100.00;101548.34;5030310;28;20206;-73
2021/09/03 00:45:29;;;;;;;11.97;7.50;;;;;;;9.66;100.00;101553.53;5029575;28;20208;-73
2021/09/03 00:47:55;;;;;;;11.33;7.00;;;;;;;9.68;100.00;101550.94;5026580;28;20217;-73
2021/09/03 00:50:22;;;;;;;10.57;7.10;;;;;;;9.53;100.00;101541.47;5028936;28;20202;-73
2021/09/03 00:52:48;;;;;;;11.33;6.97;;;;;;;9.45;100.00;101545.91;5029290;28;20216;-73
2021/09/03 00:55:15;;;;;;;9.67;7.37;;;;;;;9.41;100.00;101545.06;5024894;28;20222;-73
2021/09/03 00:57:41;;;;;;;10.17;7.30;;;;;;;9.46;100.00;101537.19;5029283;28;20226;-73
2021/09/03 01:00:08;;;;;;;12.63;7.27;;;;;;;9.46;100.00;101540.69;5026199;28;20205;-73
2021/09/03 01:02:37;;;;;;;10.53;7.30;;;;;;;9.39;100.00;101538.09;5028410;28;20296;-73
2021/09/03 01:05:04;;;;;;;8.53;6.47;;;;;;;9.43;100.00;101539.84;5028107;28;20208;-73
2021/09/03 01:07:31;;;;;;;8.00;6.40;;;;;;;9.39;100.00;101539.00;5020840;28;20226;-73
2021/09/03 01:09:57;;;;;;;10.40;6.50;;;;;;;9.40;100.00;101525.09;5022864;28;20206;-73
2021/09/03 01:12:24;;;;;;;9.13;6.50;;;;;;;9.37;100.00;101529.44;5027198;28;20212;-73
2021/09/03 01:14:50;;;;;;;7.93;6.00;;;;;;;9.29;100.00;101527.75;5028411;28;20680;-73
2021/09/03 01:17:16;;;;;;;9.47;7.47;;;;;;;9.25;100.00;101533.88;5029713;28;20232;-73
2021/09/03 01:19:44;;;;;;;10.33;7.30;;;;;;;9.26;100.00;101534.72;5024785;28;20556;-73
2021/09/03 01:22:54;;;;;;;10.50;6.90;;;;;;;9.27;100.00;101526.91;5027845;28;20203;-73
2021/09/03 01:25:22;;;;;;;8.87;6.87;;;;;;;9.20;100.00;101530.44;5030758;28;20209;-73
2021/09/03 01:27:48;;;;;;;10.63;6.87;;;;;;;9.23;100.00;101527.81;5028328;28;20232;-73
2021/09/03 01:30:16;;;;;;;10.97;7.37;;;;;;;9.18;100.00;101520.91;5027888;28;20198;-73
2021/09/03 01:32:44;;;;;;;9.87;7.00;;;;;;;9.19;100.00;101526.09;5025448;28;20209;-73
2021/09/03 01:35:11;;;;;;;8.83;6.37;;;;;;;9.29;100.00;101532.13;5021690;28;20204;-73
2021/09/03 01:37:38;;;;;;;9.87;6.87;;;;;;;9.25;100.00;101536.47;5021809;28;20714;-73
2021/09/03 01:40:06;;;;;;;9.40;6.70;;;;;;;9.09;100.00;101527.00;5026039;28;20663;-73
2021/09/03 01:42:34;;;;;;;9.73;6.67;;;;;;;9.14;100.00;101522.66;5027797;28;20206;-73
2021/09/03 01:45:00;;;;;;;10.83;6.60;;;;;;;9.08;100.00;101527.91;5023585;28;20642;-73
2021/09/03 01:47:27;;;;;;;10.07;7.07;;;;;;;9.13;100.00;101527.84;5026565;28;20315;-73
2021/09/03 01:49:54;;;;;;;9.83;6.83;;;;;;;9.04;100.00;101520.97;5027393;28;20607;-73
2021/09/03 01:52:21;;;;;;;9.37;7.03;;;;;;;9.06;100.00;101516.66;5023890;28;20200;-73
2021/09/03 01:54:47;;;;;;;9.80;7.03;;;;;;;9.05;100.00;101517.50;5026269;28;20304;-73
2021/09/03 01:57:14;;;;;;;8.00;6.40;;;;;;;9.09;100.00;101520.09;5028136;28;20234;-72
2021/09/03 01:59:42;;;;;;;8.80;6.70;;;;;;;9.06;100.00;101516.66;5027629;28;20222;-73
2021/09/03 02:02:08;;;;;;;9.43;6.57;;;;;;;8.97;100.00;101512.34;5023118;28;20468;-73
2021/09/03 02:04:34;;;;;;;7.93;6.70;;;;;;;8.93;100.00;101514.97;5020256;28;20204;-73
2021/09/03 02:07:01;;;;;;;9.20;6.23;;;;;;;8.99;100.00;101515.81;5027508;28;20712;-73
2021/09/03 02:09:27;;;;;;;13.53;6.57;;;;;;;8.93;100.00;101514.97;5026310;28;20228;-73
2021/09/03 02:11:54;;;;;;;9.27;7.13;;;;;;;8.88;100.00;101510.66;5028493;28;20205;-73
2021/09/03 02:14:20;;;;;;;10.97;6.70;;;;;;;8.93;100.00;101505.44;5028460;28;20215;-73
2021/09/03 02:16:48;;;;;;;8.43;7.10;;;;;;;8.98;100.00;101503.66;5027742;28;20424;-73
2021/09/03 02:19:14;;;;;;;8.77;6.43;;;;;;;8.89;100.00;101499.38;5027400;28;20595;-73
2021/09/03 02:21:41;;;;;;;9.33;6.90;;;;;;;8.85;100.00;101500.28;5026544;28;20195;-73
2021/09/03 02:24:08;;;;;;;8.93;6.20;;;;;;;8.80;100.00;101499.44;5024514;28;20197;-73
2021/09/03 02:26:34;;;;;;;9.63;6.53;;;;;;;8.82;100.00;101492.47;5027589;28;20230;-73
2021/09/03 02:29:00;;;;;;;8.27;6.03;;;;;;;8.76;100.00;101497.72;5026401;28;20213;-73
2021/09/03 02:31:27;;;;;;;10.43;7.27;;;;;;;8.84;100.00;101490.72;5028318;28;20678;-73
2021/09/03 02:33:55;;;;;;;11.37;8.00;;;;;;;8.90;100.00;101493.31;5027794;28;20610;-73
2021/09/03 02:36:21;;;;;;;9.90;7.30;;;;;;;8.89;100.00;101485.50;5022414;28;20295;-73
2021/09/03 02:38:48;;;;;;;11.53;7.13;;;;;;;8.89;100.00;101490.72;5026969;28;20284;-73
2021/09/03 02:41:14;;;;;;;11.30;7.83;;;;;;;8.85;100.00;101487.28;5026354;28;20197;-73
2021/09/03 02:43:40;;;;;;;12.47;7.97;;;;;;;8.81;100.00;101487.28;5022113;28;20220;-73
2021/09/03 02:46:07;;;;;;;10.37;7.17;;;;;;;8.86;100.00;101480.31;5026013;28;20206;-73
2021/09/03 02:48:33;;;;;;;11.83;8.10;;;;;;;8.85;100.00;101487.28;5026607;28;20195;-73
2021/09/03 02:51:01;;;;;;;12.03;8.20;;;;;;;8.88;100.00;101479.47;5024741;28;20579;-73
2021/09/03 02:53:27;;;;;;;13.93;8.93;;;;;;;8.83;100.00;101480.34;5023380;28;20208;-73
2021/09/03 02:55:54;;;;;;;12.13;8.23;;;;;;;8.90;100.00;101480.31;5027249;28;20220;-73
2021/09/03 02:58:20;;;;;;;12.03;7.90;;;;;;;8.80;100.00;101469.97;5027982;28;20220;-73
2021/09/03 03:00:46;;;;;;;11.33;8.00;;;;;;;8.77;100.00;101470.84;5023064;28;20200;-73
2021/09/03 03:03:13;;;;;;;11.33;7.73;;;;;;;8.74;100.00;101468.25;5027835;28;20205;-73
2021/09/03 03:05:40;;;;;;;14.47;8.70;;;;;;;8.73;100.00;101471.72;5026113;28;20205;-73
2021/09/03 03:08:08;;;;;;;9.37;7.07;;;;;;;8.68;100.00;101465.69;5027022;28;20699;-73
2021/09/03 03:10:34;;;;;;;10.30;7.37;;;;;;;8.67;100.00;101464.84;5026295;28;20204;-73
2021/09/03 03:13:10;;;;;;;9.90;7.07;;;;;;;8.58;100.00;101458.81;5024232;28;20218;-73
2021/09/03 03:15:36;;;;;;;11.80;7.80;;;;;;;8.67;100.00;101462.22;5026763;28;20205;-73
2021/09/03 03:18:03;;;;;;;10.70;7.73;;;;;;;8.55;100.00;101459.69;5030734;28;20232;-73
2021/09/03 03:20:29;;;;;;;10.60;7.07;;;;;;;8.52;100.00;101454.50;5031589;28;20204;-73
2021/09/03 03:22:55;;;;;;;11.87;7.23;;;;;;;8.56;100.00;101439.75;5028982;28;20207;-73
2021/09/03 03:25:23;;;;;;;11.00;7.23;;;;;;;8.67;100.00;101446.63;5027355;28;20223;-73
2021/09/03 03:27:49;;;;;;;10.37;6.87;;;;;;;8.66;100.00;101441.44;5029887;28;20216;-73
2021/09/03 03:30:16;;;;;;;12.40;8.03;;;;;;;8.51;100.00;101440.66;5030187;28;20211;-73
2021/09/03 03:32:42;;;;;;;11.93;7.80;;;;;;;8.63;100.00;101442.31;5028351;28;20697;-72
2021/09/03 03:35:09;;;;;;;13.40;7.80;;;;;;;8.58;100.00;101438.00;5030345;28;20208;-72
2021/09/03 03:37:36;;;;;;;14.57;8.17;;;;;;;8.67;100.00;101431.03;5030051;28;20290;-73
2021/09/03 03:40:03;;;;;;;9.60;7.40;;;;;;;8.57;100.00;101428.50;5028923;28;20677;-72
2021/09/03 03:42:31;;;;;;;12.87;7.47;;;;;;;8.47;100.00;101436.31;5026166;28;20215;-73
2021/09/03 03:44:57;;;;;;;9.33;6.80;;;;;;;8.59;100.00;101425.00;5030248;28;20262;-73
2021/09/03 03:47:24;;;;;;;9.43;6.40;;;;;;;8.57;100.00;101423.31;5023857;28;20221;-73
2021/09/03 03:49:50;;;;;;;10.90;7.50;;;;;;;8.63;100.00;101420.66;5027095;28;20218;-72
2021/09/03 03:52:16;;;;;;;9.27;7.07;;;;;;;8.60;100.00;101412.84;5028982;28;20196;-72
2021/09/03 03:54:43;;;;;;;8.00;6.67;;;;;;;8.50;100.00;101423.31;5030197;28;20207;-72
2021/09/03 03:57:09;;;;;;;11.10;8.07;;;;;;;8.60;100.00;101416.34;5030290;28;20227;-73
2021/09/03 03:59:37;;;;;;;11.07;8.07;;;;;;;8.51;100.00;101416.38;5029101;28;20207;-73
2021/09/03 04:02:04;;;;;;;11.47;8.07;;;;;;;8.62;100.00;101412.00;5026964;28;20212;-73
2021/09/03 04:04:30;;;;;;;13.30;8.27;;;;;;;8.56;100.00;101413.75;5025330;28;20197;-72
2021/09/03 04:06:57;;;;;;;9.87;7.57;;;;;;;8.48;100.00;101413.81;5028521;28;20288;-73
2021/09/03 04:09:23;;;;;;;12.10;8.90;;;;;;;8.59;100.00;101411.16;5032148;28;20197;-73
2021/09/03 04:11:50;;;;;;;12.47;8.03;;;;;;;8.56;100.00;101411.16;5026481;28;20202;-73
2021/09/03 04:14:18;;;;;;;12.37;8.77;;;;;;;8.57;100.00;101408.56;5024239;28;20644;-73
2021/09/03 04:16:46;;;;;;;13.20;8.63;;;;;;;8.70;100.00;101404.13;5028341;28;20278;-73
2021/09/03 04:19:12;;;;;;;13.47;9.20;;;;;;;8.66;100.00;101408.50;5029457;28;20197;-73
2021/09/03 04:21:39;;;;;;;11.57;8.73;;;;;;;8.65;100.00;101396.38;5030621;28;20207;-73
2021/09/03 04:24:05;;;;;;;16.13;10.23;;;;;;;8.67;100.00;101394.63;5029654;28;20688;-73
2021/09/03 04:26:32;;;;;;;13.53;9.93;;;;;;;8.65;100.00;101392.91;5027074;28;20338;-73
2021/09/03 04:28:58;;;;;;;18.23;10.97;;;;;;;8.77;100.00;101400.63;5027353;28;20231;-73
2021/09/03 04:31:25;;;;;;;17.40;10.83;;;;;;;8.81;100.00;101394.56;5029259;28;20580;-73
2021/09/03 04:33:52;;;;;;;18.63;10.73;;;;;;;8.75;100.00;101396.31;5028750;28;20303;-73
2021/09/03 04:36:19;;;;;;;18.43;11.10;;;;;;;8.71;100.00;101388.53;5025956;28;20232;-73
2021/09/03 04:38:45;;;;;;;19.20;10.57;;;;;;;8.66;100.00;101392.91;5027291;28;20208;-73
2021/09/03 04:41:12;;;;;;;15.40;10.90;;;;;;;8.81;100.00;101384.16;5030709;28;20204;-73
2021/09/03 04:43:38;;;;;;;18.93;10.83;;;;;;;8.76;100.00;101387.63;5026391;28;20678;-73
2021/09/03 04:46:04;;;;;;;21.77;11.23;;;;;;;8.73;100.00;101388.53;5028016;28;20200;-73
2021/09/03 04:48:31;;;;;;;17.90;10.77;;;;;;;8.79;100.00;101395.41;5027159;28;20204;-73
2021/09/03 04:50:59;;;;;;;19.77;11.57;;;;;;;8.90;100.00;101385.84;5026641;28;20294;-73
2021/09/03 04:53:25;;;;;;;16.57;11.23;;;;;;;8.89;100.00;101395.34;5028838;28;20215;-73
2021/09/03 04:55:53;;;;;;;19.13;11.80;;;;;;;8.89;100.00;101397.09;5026704;28;20571;-73
2021/09/03 04:58:19;;;;;;;20.23;10.77;;;;;;;8.95;100.00;101397.03;5029706;28;20273;-73
2021/09/03 05:00:46;;;;;;;20.87;12.63;;;;;;;9.11;100.00;101392.56;5025503;28;20736;-73
2021/09/03 05:03:12;;;;;;;22.63;11.63;;;;;;;9.11;100.00;101402.97;5026113;28;20204;-73
2021/09/03 05:05:38;;;;;;;22.67;12.60;;;;;;;9.15;100.00;101399.50;5025528;28;20212;-73
2021/09/03 05:08:07;;;;;;;23.77;13.57;;;;;;;9.32;100.00;101394.16;5029144;28;20220;-73
2021/09/03 05:10:34;;;;;;;25.37;12.67;;;;;;;9.40;100.00;101400.16;5027244;28;20205;-73
2021/09/03 05:13:00;;;;;;;25.10;13.60;;;;;;;9.42;100.00;101394.94;5028108;28;20211;-72
2021/09/03 05:15:33;;;;;;;24.67;14.00;;;;;;;9.40;100.00;101396.69;5019077;28;20287;-73
2021/09/03 05:18:00;;;;;;;27.60;14.27;;;;;;;9.56;100.00;101397.41;5024038;28;20617;-73
2021/09/03 05:20:26;;;;;;;22.60;13.20;;;;;;;9.66;100.00;101394.69;5025571;28;20211;-73
2021/09/03 05:22:52;;;;;;;27.83;14.70;;;;;;;9.77;100.00;101398.94;5023547;28;20219;-73
2021/09/03 05:25:20;;;;;;;31.87;15.90;;;;;;;9.83;100.00;101401.47;5028000;28;20215;-73
2021/09/03 05:27:47;;;;;;;28.07;15.30;;;;;;;9.90;100.00;101390.09;5018951;28;20584;-73
2021/09/03 05:30:14;;;;;;;29.83;14.33;;;;;;;9.98;100.00;101388.28;5028383;28;20207;-73
2021/09/03 05:32:41;;;;;;;31.97;16.63;;;;;;;10.02;100.00;101387.34;5025421;28;20219;-73
2021/09/03 05:35:09;;;;;;;30.43;16.60;;;;;;;10.13;100.00;101387.25;5025707;28;20315;-73
2021/09/03 05:37:35;;;;;;;33.63;16.93;;;;;;;10.13;100.00;101383.75;5020916;28;20231;-73
2021/09/03 05:40:02;;;;;;;40.63;17.30;;;;;;;10.19;100.00;101386.31;5022473;28;20207;-73
2021/09/03 05:42:30;;;;;;;37.63;18.40;;;;;;;10.20;100.00;101388.00;5023257;28;20384;-73
2021/09/03 05:44:56;;;;;;;38.47;17.50;;;;;;;10.29;100.00;101374.91;5025484;28;20626;-73
2021/09/03 05:47:23;;;;;;;37.53;18.93;;;;;;;10.41;100.00;101373.88;5025770;28;20253;-73
2021/09/03 05:49:49;;;;;;;39.33;19.57;;;;;;;10.49;100.00;101377.25;5025176;28;20711;-72
2021/09/03 05:52:16;;;;;;;47.03;20.20;;;;;;;10.56;100.00;101375.44;5026512;28;20288;-73
2021/09/03 05:54:42;;;;;;;41.90;19.83;;;;;;;10.64;100.00;101373.59;5024086;28;20204;-73
2021/09/03 05:57:08;;;;;;;43.27;19.80;;;;;;;10.76;100.00;101367.31;5019549;28;20707;-73
2021/09/03 05:59:36;;;;;;;47.23;22.53;;;;;;;10.87;100.00;101364.53;5022164;28;20192;-73
2021/09/03 06:02:03;;;;;;;46.37;20.80;;;;;;;10.94;100.00;101359.22;5023123;28;20212;-74
2021/09/03 06:04:29;;;;;;;51.30;21.83;;;;;;;11.05;100.00;101358.19;5023646;28;20212;-74
2021/09/03 06:06:55;;;;;;;45.73;21.43;;;;;;;11.15;100.00;101358.00;5022592;28;20271;-73
2021/09/03 06:09:22;;;;;;;43.63;19.93;;;;;;;11.27;100.00;101356.06;5025695;28;20211;-74
2021/09/03 06:11:48;;;;;;;47.80;21.07;;;;;;;11.40;100.00;101361.91;5020149;28;20210;-73
2021/09/03 06:14:15;;;;;;;49.37;20.77;;;;;;;11.51;100.00;101362.59;5024915;28;20536;-74
2021/09/03 06:16:43;;;;;;;46.47;21.70;;;;;;;11.60;100.00;101358.94;5024756;28;20728;-73
2021/09/03 06:19:09;;;;;;;52.23;22.00;;;;;;;11.73;100.00;101350.84;5022387;28;20246;-73
2021/09/03 06:21:35;;;;;;;50.63;22.53;;;;;;;11.86;100.00;101340.16;5025229;28;20295;-74
2021/09/03 06:24:26;;;;;;;51.10;22.03;;;;;;;11.98;100.00;101342.56;5023104;28;20204;-73
2021/09/03 06:26:48;;;;;;;56.90;22.43;;;;;;;12.11;100.00;101344.00;5023118;28;20235;-73
2021/09/03 06:29:36;;;;;;;61.00;23.90;;;;;;;12.23;100.00;101342.91;5023420;28;20206;-74
2021/09/03 06:32:03;;;;;;;49.70;22.57;;;;;;;12.39;100.00;101348.66;5023540;28;20668;-74
2021/09/03 06:34:29;;;;;;;56.90;23.70;;;;;;;12.49;100.00;101349.31;5024652;28;20208;-74
2021/09/03 06:36:56;;;;;;;61.27;24.63;;;;;;;12.62;100.00;101344.66;5023734;28;20222;-73
2021/09/03 06:39:22;;;;;;;58.53;23.97;;;;;;;12.74;100.00;101341.75;5024336;28;20534;-74
2021/09/03 06:41:49;;;;;;;58.57;25.47;;;;;;;12.89;100.00;101343.13;5021586;28;20800;-74
2021/09/03 06:44:15;;;;;;;61.13;25.00;;;;;;;13.01;100.00;101331.50;5016702;28;20282;-74
2021/09/03 06:46:42;;;;;;;56.53;24.60;;;;;;;13.12;100.00;101328.59;5023388;28;20234;-74
2021/09/03 06:49:09;;;;;;;59.53;25.47;;;;;;;13.23;100.00;101329.22;5023994;28;20300;-73
2021/09/03 06:51:36;;;;;;;60.43;25.50;;;;;;;13.34;100.00;101335.06;5026153;28;20200;-73
2021/09/03 06:54:02;;;;;;;62.57;26.23;;;;;;;13.41;100.00;101336.59;5029484;28;20212;-74
2021/09/03 06:56:28;;;;;;;61.73;26.00;;;;;;;13.52;100.00;101335.47;5021955;28;20232;-74
2021/09/03 06:58:55;;;;;;;59.37;25.70;;;;;;;13.64;100.00;101340.38;5027538;28;20219;-73
2021/09/03 07:01:21;;;;;;;67.90;25.87;;;;;;;13.76;100.00;101339.16;5027044;28;20630;-74
2021/09/03 07:03:47;;;;;;;53.33;25.27;;;;;;;13.92;100.00;101326.50;5027517;28;20196;-73
2021/09/03 07:06:15;;;;;;;51.17;24.47;;;;;;;14.00;100.00;101330.59;5028087;28;20209;-74
2021/09/03 07:08:42;;;;;;;54.33;24.97;;;;;;;14.13;100.00;101335.50;5023937;28;20199;-74
2021/09/03 07:11:08;;;;;;;48.83;23.70;;;;;;;14.23;100.00;101329.06;5026905;28;20717;-73
2021/09/03 07:13:35;;;;;;;48.73;23.80;;;;;;;14.34;100.00;101334.84;5023878;28;20217;-73
2021/09/03 07:16:01;;;;;;;51.43;24.17;;;;;;;14.46;100.00;101333.59;5021225;28;20200;-73
2021/09/03 07:18:28;;;;;;;53.70;24.20;;;;;;;14.61;100.00;101331.44;5025053;28;20235;-74
2021/09/03 07:20:54;;;;;;;47.43;22.47;;;;;;;14.69;100.00;101329.44;5028457;28;20599;-73
2021/09/03 07:23:22;;;;;;;42.47;22.30;;;;;;;14.81;100.00;101336.03;5027902;28;20204;-73
2021/09/03 07:25:49;;;;;;;42.17;20.93;;;;;;;14.98;100.00;101333.72;5027271;28;20208;-74
2021/09/03 07:28:15;;;;;;;40.10;22.00;;;;;;;15.10;100.00;101330.69;5026328;28;20219;-74
2021/09/03 07:30:42;;;;;;;39.80;21.73;;;;;;;15.17;100.00;101333.97;5026344;28;20213;-73
2021/09/03 07:33:08;;;;;;;37.83;19.80;;;;;;;15.28;100.00;101330.97;5021533;28;20206;-74
2021/09/03 07:35:34;;;;;;;36.50;20.37;;;;;;;15.42;100.00;101330.50;5024150;28;20204;-74
2021/09/03 07:38:01;;;;;;;30.03;18.13;;;;;;;15.53;100.00;101329.19;5023087;28;20250;-74
2021/09/03 07:40:29;;;;;;;32.77;18.13;;;;;;;15.62;100.00;101324.50;5024597;28;20208;-74
2021/09/03 07:42:55;;;;;;;29.20;18.03;;;;;;;15.77;100.00;101320.50;5026816;28;20291;-74
2021/09/03 07:45:22;;;;;;;27.83;16.90;;;;;;;15.86;100.00;101328.91;5024991;28;20267;-74
2021/09/03 07:47:48;;;;;;;22.47;15.20;;;;;;;15.94;100.00;101328.63;5025890;28;20228;-74
2021/09/03 07:50:17;;;;;;;24.53;16.13;;;;;;;16.10;100.00;101323.66;5020260;28;20206;-74
2021/09/03 07:52:44;;;;;;;24.57;14.67;;;;;;;16.09;100.00;101325.44;5025551;28;20318;-74
2021/09/03 07:55:10;;;;;;;23.33;14.03;;;;;;;16.14;100.00;101324.41;5023921;28;20280;-74
2021/09/03 07:57:38;;;;;;;19.83;12.90;;;;;;;16.31;100.00;101323.75;5023558;28;20626;-74
2021/09/03 08:00:06;;;;;;;15.47;12.10;;;;;;;16.38;100.00;101312.06;5029943;28;20211;-74
2021/09/03 08:02:33;;;;;;;16.93;12.10;;;;;;;16.46;100.00;101315.22;5021615;28;20208;-75
2021/09/03 08:04:59;;;;;;;19.77;12.23;;;;;;;16.59;100.00;101313.84;5025707;28;20712;-74
2021/09/03 08:07:28;;;;;;;18.23;11.07;;;;;;;16.76;100.00;101314.91;5024110;28;20247;-74
2021/09/03 08:09:55;;;;;;;16.10;10.10;;;;;;;16.82;100.00;101310.25;5023721;28;20230;-74
2021/09/03 08:12:21;;;;;;;15.93;10.80;;;;;;;16.90;100.00;101312.59;5023880;28;20202;-74
2021/09/03 08:14:49;;;;;;;16.70;10.97;;;;;;;16.99;100.00;101316.63;5024395;28;20204;-74
2021/09/03 08:17:15;;;;;;;15.73;11.30;;;;;;;17.10;100.00;101313.56;5025359;28;20226;-74
2021/09/03 08:19:42;;;;;;;14.10;10.37;;;;;;;17.25;100.00;101310.25;5023271;28;20200;-73
2021/09/03 08:22:09;;;;;;;14.60;10.30;;;;;;;17.32;100.00;101313.47;5026733;28;20204;-74
2021/09/03 08:24:36;;;;;;;14.83;9.77;;;;;;;17.37;100.00;101300.97;5023802;28;20202;-74
2021/09/03 08:27:03;;;;;;;14.00;9.57;;;;;;;17.45;97.53;101313.78;5026361;28;20220;-74
2021/09/03 08:29:29;;;;;;;15.67;9.73;;;;;;;17.53;96.97;101317.78;5018433;28;20209;-74
2021/09/03 08:31:57;;;;;;;18.10;9.70;;;;;;;17.63;95.20;101314.78;5023909;28;20629;-73
2021/09/03 08:34:23;;;;;;;17.73;8.93;;;;;;;17.69;94.66;101309.22;5023919;28;20265;-74
2021/09/03 08:36:50;;;;;;;14.13;9.17;;;;;;;17.72;93.86;101309.09;5024218;28;20271;-74
2021/09/03 08:39:16;;;;;;;12.57;8.57;;;;;;;17.84;93.41;101300.63;5023983;28;20224;-75
2021/09/03 08:41:43;;;;;;;15.70;9.20;;;;;;;17.90;92.85;101310.06;5024155;28;20315;-74
2021/09/03 08:44:09;;;;;;;12.83;8.60;;;;;;;17.97;91.09;101309.69;5030785;28;20203;-75
2021/09/03 08:46:36;;;;;;;11.97;8.73;;;;;;;18.06;90.67;101305.75;5023229;28;20231;-74
2021/09/03 08:49:06;;;;;;;11.50;9.00;;;;;;;18.11;91.06;101316.97;5026290;28;20250;-74
2021/09/03 08:51:33;;;;;;;11.53;8.03;;;;;;;18.28;92.74;101302.97;5025035;28;20232;-74
2021/09/03 08:53:59;;;;;;;13.10;8.23;;;;;;;18.34;91.82;101297.38;5022818;28;20223;-74
2021/09/03 08:56:26;;;;;;;12.93;8.23;;;;;;;18.43;89.62;101300.53;5023322;28;20235;-74
2021/09/03 08:58:52;;;;;;;14.17;9.17;;;;;;;18.55;89.46;101300.78;5020766;28;20571;-74
2021/09/03 09:01:19;;;;;;;13.27;8.77;;;;;;;18.61;90.64;101294.38;5025757;28;20692;-74
2021/09/03 09:03:48;;;;;;;13.63;9.33;;;;;;;18.61;89.59;101297.00;5022705;28;20218;-74
2021/09/03 09:06:21;;;;;;;14.43;9.07;;;;;;;18.73;89.53;101299.03;5024612;28;20208;-74
2021/09/03 09:08:55;;;;;;;11.93;8.53;;;;;;;19.03;88.88;101297.59;5020077;28;20207;-74
2021/09/03 09:11:21;;;;;;;10.93;8.57;;;;;;;19.17;85.13;101305.69;5018371;28;20203;-74
2021/09/03 09:13:49;;;;;;;12.73;8.87;;;;;;;19.27;86.93;101295.47;5021623;28;20224;-74
2021/09/03 09:16:17;;;;;;;12.70;9.80;;;;;;;19.11;85.68;101285.69;5023246;28;20298;-73
2021/09/03 09:18:46;;;;;;;13.00;8.90;;;;;;;19.23;86.08;101292.13;5017264;28;20229;-74
2021/09/03 09:21:26;;;;;;;14.00;9.00;;;;;;;19.33;86.15;101286.38;5022444;28;20981;-74
2021/09/03 09:23:56;;;;;;;12.57;8.23;;;;;;;19.44;84.54;101294.59;5022782;28;20392;-73
2021/09/03 09:26:25;;;;;;;13.20;8.43;;;;;;;19.52;84.21;101292.38;5022371;28;20755;-74
2021/09/03 09:28:53;;;;;;;14.87;8.33;;;;;;;19.54;81.97;101297.59;5021526;28;20296;-74
2021/09/03 09:31:45;;;;;;;11.53;7.80;;;;;;;19.55;82.82;101294.88;5021968;28;20200;-74
2021/09/03 09:34:16;;;;;;;8.57;6.87;;;;;;;19.58;82.62;101291.22;5021015;28;20215;-73
2021/09/03 09:36:44;;;;;;;11.33;7.00;;;;;;;19.58;81.25;101286.78;5016696;28;20273;-75
2021/09/03 09:39:11;;;;;;;12.07;7.77;;;;;;;19.60;80.80;101290.19;5017517;28;20208;-74
2021/09/03 09:41:37;;;;;;;14.20;6.90;;;;;;;19.75;82.45;101285.94;5023363;28;20262;-74
2021/09/03 09:44:04;;;;;;;9.53;7.23;;;;;;;19.86;80.33;101283.53;5021015;28;20289;-74
2021/09/03 09:46:32;;;;;;;10.77;7.20;;;;;;;20.00;80.79;101282.78;5022439;28;20223;-73
2021/09/03 09:49:02;;;;;;;11.37;7.20;;;;;;;20.19;80.24;101277.31;5020921;28;20685;-74
2021/09/03 09:51:31;;;;;;;10.70;6.80;;;;;;;20.49;79.84;101278.28;5020944;28;20204;-73
2021/09/03 09:54:01;;;;;;;9.23;6.93;;;;;;;20.59;76.82;101282.13;5018460;28;20295;-75
2021/09/03 09:56:29;;;;;;;10.43;7.57;;;;;;;20.31;75.19;101288.16;5022352;28;20306;-73
2021/09/03 09:58:58;;;;;;;12.20;8.20;;;;;;;19.84;76.48;101276.59;5025526;28;20222;-74
2021/09/03 10:01:25;;;;;;;12.23;7.80;;;;;;;19.70;78.27;101263.25;5021787;28;20204;-74
2021/09/03 10:03:52;;;;;;;11.37;8.50;;;;;;;19.71;78.81;101265.81;5023307;28;20196;-74
2021/09/03 10:06:20;;;;;;;9.73;7.53;;;;;;;19.74;80.18;101255.09;5018291;28;20212;-74
2021/09/03 10:08:48;;;;;;;10.30;7.30;;;;;;;19.75;79.80;101258.59;5022288;28;20205;-73
2021/09/03 10:11:16;;;;;;;9.60;7.67;;;;;;;19.95;79.10;101250.41;5022124;28;20203;-74
2021/09/03 10:13:43;;;;;;;9.90;7.97;;;;;;;20.01;75.48;101251.88;5016987;28;20301;-74
2021/09/03 10:16:10;;;;;;;12.37;8.03;;;;;;;20.19;76.55;101249.97;5018943;28;20187;-73
2021/09/03 10:18:38;;;;;;;9.90;8.07;;;;;;;20.26;78.97;101245.19;5021195;28;20410;-74
2021/09/03 10:21:05;;;;;;;11.63;7.40;;;;;;;20.46;77.85;101238.75;5021370;28;20719;-74
2021/09/03 10:23:52;;;;;;;8.53;7.20;;;;;;;20.59;76.77;101243.22;5020429;28;20202;-74
2021/09/03 10:26:23;;;;;;;10.73;7.43;;;;;;;20.61;76.05;101232.53;5017138;28;20211;-74
2021/09/03 10:28:50;;;;;;;11.03;7.13;;;;;;;20.66;73.41;101241.09;5020736;28;20196;-74
2021/09/03 10:31:19;;;;;;;9.20;6.87;;;;;;;20.70;75.13;101228.53;5023412;28;20208;-74
2021/09/03 10:33:46;;;;;;;12.23;7.27;;;;;;;20.88;75.32;101221.28;5016042;28;20208;-74
2021/09/03 10:36:12;;;;;;;7.70;6.60;;;;;;;20.93;71.90;101227.16;5021215;28;20200;-74
2021/09/03 10:38:44;;;;;;;9.83;7.03;;;;;;;20.97;73.72;101213.63;5021681;28;20226;-74
2021/09/03 10:41:48;;;;;;;9.97;6.83;;;;;;;21.02;73.66;101215.16;5020797;28;20703;-74
2021/09/03 10:44:14;;;;;;;7.73;6.70;;;;;;;21.24;74.18;101210.25;5020967;28;20206;-73
2021/09/03 10:46:43;;;;;;;10.07;6.87;;;;;;;21.48;72.75;101210.56;5018563;28;20238;-73
2021/09/03 10:49:09;;;;;;;7.50;6.70;;;;;;;21.55;71.27;101214.53;5023030;28;20208;-74
2021/09/03 10:51:37;;;;;;;8.80;6.73;;;;;;;21.62;69.12;101204.38;5018339;28;20443;-74
2021/09/03 10:54:14;;;;;;;8.87;6.37;;;;;;;21.80;68.51;101209.47;5020906;28;20284;-74
2021/09/03 10:56:56;;;;;;;10.87;7.13;;;;;;;21.85;67.82;101205.56;5022226;28;20227;-74
2021/09/03 10:59:23;;;;;;;7.78;6.25;;;;;;;21.91;69.25;101199.84;5019492;28;20255;-74
2021/09/03 11:01:52;;;;;;;9.23;6.80;;;;;;;21.98;68.11;101202.94;5020318;28;20306;-74
2021/09/03 11:04:21;;;;;;;7.85;6.03;;;;;;;22.12;67.70;101200.25;5020661;28;20219;-74
2021/09/03 11:07:00;;;;;;;7.32;5.70;;;;;;;22.20;65.42;101205.06;5021172;28;20224;-74
2021/09/03 11:09:28;;;;;;;6.15;5.55;;;;;;;22.26;65.44;101209.13;5019570;28;20204;-75
2021/09/03 11:11:57;;;;;;;8.00;6.18;;;;;;;22.10;65.90;101202.16;5020460;28;20290;-74
2021/09/03 11:14:26;;;;;;;8.27;6.70;;;;;;;22.08;67.41;101204.06;5023437;28;20226;-73
2021/09/03 11:16:55;;;;;;;9.02;7.22;;;;;;;21.68;68.17;101192.53;5019809;28;20969;-74